Time;durP1;ratioP1;P1;durP2;ratioP2;P2;SDS_P1;SDS_P2;PMS_P1;PMS_P2;Temp;Humidity;BMP_temperature;BMP_pressure;BME280_temperature;BME280_humidity;BME280_pressure;Samples;Min_cycle;Max_cycle;Signal;HPM_P1;HPM_P2
2023/11/07 00:00:18;;;;;;;4.72;1.58;;;;;;;;;;6210610;23;20013;-84
2023/11/07 00:02:45;;;;;;;3.15;1.67;;;;;;;;;;6211151;23;20019;-83
2023/11/07 00:05:11;;;;;;;4.35;1.85;;;;;;;;;;6210164;23;20428;-84
2023/11/07 00:07:39;;;;;;;3.03;1.15;;;;;;;;;;6210476;23;20044;-83
2023/11/07 00:10:06;;;;;;;4.03;1.75;;;;;;;;;;6210469;23;20035;-83
2023/11/07 00:12:35;;;;;;;0.95;0.60;;;;;;;;;;6211235;23;20321;-84
2023/11/07 00:15:04;;;;;;;3.15;1.40;;;;;;;;;;6210160;23;20024;-84
2023/11/07 00:17:30;;;;;;;2.88;1.67;;;;;;;;;;6210801;23;20017;-84
2023/11/07 00:19:56;;;;;;;2.22;1.27;;;;;;;;;;6210716;23;20001;-84
2023/11/07 00:22:26;;;;;;;1.52;1.00;;;;;;;;;;6213099;23;20294;-84
2023/11/07 00:24:53;;;;;;;2.85;1.23;;;;;;;;;;6210540;23;20015;-84
2023/11/07 00:27:19;;;;;;;2.05;1.27;;;;;;;;;;6211270;23;20023;-84
2023/11/07 00:29:46;;;;;;;5.00;0.90;;;;;;;;;;6210445;23;20091;-84
2023/11/07 00:32:15;;;;;;;1.60;0.73;;;;;;;;;;6211257;23;20028;-84
2023/11/07 00:34:44;;;;;;;1.08;0.52;;;;;;;;;;6210629;23;20040;-84
2023/11/07 00:37:13;;;;;;;1.67;0.85;;;;;;;;;;6211254;23;20005;-84
2023/11/07 00:39:39;;;;;;;1.23;0.85;;;;;;;;;;6212980;23;20047;-84
2023/11/07 00:42:05;;;;;;;0.73;0.30;;;;;;;;;;6211276;23;20119;-84
2023/11/07 00:44:32;;;;;;;4.63;0.50;;;;;;;;;;6210361;23;20009;-84
2023/11/07 00:46:59;;;;;;;1.23;0.40;;;;;;;;;;6210322;23;20316;-84
2023/11/07 00:49:25;;;;;;;1.90;0.60;;;;;;;;;;6209960;23;20598;-84
2023/11/07 00:51:51;;;;;;;0.85;0.63;;;;;;;;;;6209983;23;20028;-84
2023/11/07 00:54:17;;;;;;;3.92;1.02;;;;;;;;;;6209708;23;20008;-84
2023/11/07 00:56:52;;;;;;;2.78;1.02;;;;;;;;;;6210298;23;20051;-84
2023/11/07 00:59:18;;;;;;;1.58;0.85;;;;;;;;;;6210338;23;20012;-84
2023/11/07 01:01:44;;;;;;;0.57;0.30;;;;;;;;;;6212270;23;20036;-84
2023/11/07 01:04:10;;;;;;;3.53;1.08;;;;;;;;;;6210270;23;20021;-84
2023/11/07 01:06:39;;;;;;;0.40;0.30;;;;;;;;;;6212899;23;20405;-84
2023/11/07 01:09:05;;;;;;;0.95;0.20;;;;;;;;;;6210409;23;20040;-84
2023/11/07 01:11:31;;;;;;;0.68;0.60;;;;;;;;;;6212246;23;20031;-83
2023/11/07 01:14:03;;;;;;;0.68;0.40;;;;;;;;;;6210210;23;20059;-84
2023/11/07 01:16:29;;;;;;;1.35;0.68;;;;;;;;;;6212540;23;20005;-84
2023/11/07 01:18:55;;;;;;;2.45;0.93;;;;;;;;;;6211944;23;20030;-84
2023/11/07 01:21:21;;;;;;;1.30;0.45;;;;;;;;;;6212590;23;20005;-84
2023/11/07 01:23:47;;;;;;;0.95;0.45;;;;;;;;;;6210343;23;20018;-83
2023/11/07 01:26:13;;;;;;;4.95;1.75;;;;;;;;;;6210861;23;20343;-84
2023/11/07 01:28:39;;;;;;;2.55;0.77;;;;;;;;;;6210139;23;20017;-84
2023/11/07 01:31:09;;;;;;;1.45;0.50;;;;;;;;;;6210599;23;20595;-84
2023/11/07 01:33:41;;;;;;;1.98;0.57;;;;;;;;;;6209943;23;20092;-84
2023/11/07 01:36:20;;;;;;;2.70;1.00;;;;;;;;;;6210073;23;20032;-84
2023/11/07 01:38:48;;;;;;;2.78;1.30;;;;;;;;;;6210335;23;20016;-84
2023/11/07 01:41:14;;;;;;;2.47;0.68;;;;;;;;;;6212278;23;20016;-84
2023/11/07 01:43:46;;;;;;;4.65;1.55;;;;;;;;;;6210434;23;20016;-84
2023/11/07 01:46:12;;;;;;;4.03;1.30;;;;;;;;;;6211248;23;20016;-84
2023/11/07 01:48:38;;;;;;;5.57;1.70;;;;;;;;;;6210979;23;20317;-84
2023/11/07 01:51:05;;;;;;;1.83;1.08;;;;;;;;;;6209354;23;20050;-84
2023/11/07 01:53:36;;;;;;;3.38;1.67;;;;;;;;;;6212198;23;20447;-84
2023/11/07 01:56:05;;;;;;;1.57;0.80;;;;;;;;;;6212724;23;20037;-84
2023/11/07 01:58:32;;;;;;;2.72;1.05;;;;;;;;;;6209490;23;20649;-84
2023/11/07 02:00:58;;;;;;;5.07;1.08;;;;;;;;;;6209849;23;20008;-84
2023/11/07 02:03:38;;;;;;;4.65;1.38;;;;;;;;;;6209509;23;20027;-84
2023/11/07 02:06:18;;;;;;;2.33;1.00;;;;;;;;;;6211964;23;20015;-84
2023/11/07 02:08:50;;;;;;;7.68;2.10;;;;;;;;;;6209578;23;20040;-84
2023/11/07 02:11:25;;;;;;;1.42;0.70;;;;;;;;;;6210609;23;20008;-84
2023/11/07 02:13:51;;;;;;;2.05;0.80;;;;;;;;;;6209699;23;20056;-84
2023/11/07 02:16:17;;;;;;;1.35;0.82;;;;;;;;;;6210131;23;20223;-84
2023/11/07 02:18:43;;;;;;;0.98;0.40;;;;;;;;;;6208911;23;20012;-84
2023/11/07 02:21:09;;;;;;;3.25;1.60;;;;;;;;;;6209960;23;20067;-84
2023/11/07 02:23:36;;;;;;;1.83;0.77;;;;;;;;;;6209339;23;20095;-84
2023/11/07 02:26:17;;;;;;;1.45;0.65;;;;;;;;;;6209764;23;20004;-84
2023/11/07 02:28:46;;;;;;;4.72;0.98;;;;;;;;;;6210444;23;20768;-84
2023/11/07 02:31:12;;;;;;;2.17;0.73;;;;;;;;;;6210708;23;20013;-84
2023/11/07 02:33:41;;;;;;;8.23;0.30;;;;;;;;;;6209659;23;20013;-84
2023/11/07 02:36:07;;;;;;;2.80;0.85;;;;;;;;;;6209059;23;20009;-84
2023/11/07 02:38:33;;;;;;;0.90;0.70;;;;;;;;;;6209510;23;20008;-83
2023/11/07 02:40:59;;;;;;;2.92;1.38;;;;;;;;;;6208979;23;20021;-83
2023/11/07 02:43:28;;;;;;;2.50;0.80;;;;;;;;;;6209863;23;20013;-83
2023/11/07 02:45:54;;;;;;;2.40;1.17;;;;;;;;;;6209008;23;20024;-83
2023/11/07 02:48:20;;;;;;;0.85;0.50;;;;;;;;;;6209203;23;20309;-84
2023/11/07 02:50:46;;;;;;;1.48;1.00;;;;;;;;;;6211505;23;20016;-83
2023/11/07 02:53:14;;;;;;;3.20;0.98;;;;;;;;;;6209284;23;20678;-83
2023/11/07 02:55:40;;;;;;;1.13;0.50;;;;;;;;;;6211681;23;19996;-83
2023/11/07 02:58:08;;;;;;;0.88;0.52;;;;;;;;;;6210325;23;20013;-84
2023/11/07 03:00:38;;;;;;;1.15;0.63;;;;;;;;;;6209529;23;20004;-84
2023/11/07 03:03:04;;;;;;;0.40;0.20;;;;;;;;;;6209994;23;20243;-84
2023/11/07 03:05:33;;;;;;;4.43;0.75;;;;;;;;;;6210483;23;20020;-83
2023/11/07 03:08:01;;;;;;;3.38;1.17;;;;;;;;;;6211860;23;20047;-84
2023/11/07 03:10:27;;;;;;;0.47;0.35;;;;;;;;;;6211097;23;20050;-84
2023/11/07 03:12:53;;;;;;;2.25;0.50;;;;;;;;;;6211742;23;20498;-84
2023/11/07 03:15:20;;;;;;;1.35;0.68;;;;;;;;;;6210569;23;20039;-84
2023/11/07 03:17:58;;;;;;;;;;;;;;;;;;;;;
2023/11/07 03:20:27;;;;;;;2.65;0.73;;;;;;;;;;6212691;23;20100;-84
2023/11/07 03:22:54;;;;;;;1.60;0.50;;;;;;;;;;6211812;23;20051;-84
2023/11/07 03:25:23;;;;;;;3.53;0.75;;;;;;;;;;6213273;23;20404;-84
2023/11/07 03:27:51;;;;;;;5.93;2.22;;;;;;;;;;6211086;23;20012;-84
2023/11/07 03:30:39;;;;;;;7.57;2.08;;;;;;;;;;6212519;23;20036;-84
2023/11/07 03:39:24;;;;;;;2.83;1.27;;;;;;;;;;6212743;23;20096;-84
2023/11/07 03:41:51;;;;;;;2.42;0.90;;;;;;;;;;6211651;23;20032;-84
2023/11/07 03:44:23;;;;;;;2.47;0.75;;;;;;;;;;6210745;23;20009;-84
2023/11/07 03:46:54;;;;;;;1.25;0.70;;;;;;;;;;6213323;23;20028;-84
2023/11/07 03:49:26;;;;;;;3.13;0.85;;;;;;;;;;6211958;23;20005;-84
2023/11/07 03:51:52;;;;;;;1.88;0.85;;;;;;;;;;6213946;23;20009;-83
2023/11/07 03:54:19;;;;;;;1.75;0.90;;;;;;;;;;6211808;23;20375;-84
2023/11/07 03:56:46;;;;;;;1.15;0.80;;;;;;;;;;6211524;23;20020;-84
2023/11/07 03:59:12;;;;;;;1.30;0.68;;;;;;;;;;6210912;23;20004;-84
2023/11/07 04:01:44;;;;;;;6.32;1.35;;;;;;;;;;6210140;23;20020;-84
2023/11/07 04:04:16;;;;;;;4.28;1.38;;;;;;;;;;6210746;23;20004;-84
2023/11/07 04:06:42;;;;;;;3.20;0.87;;;;;;;;;;6211126;23;20017;-84
2023/11/07 04:09:11;;;;;;;2.03;1.05;;;;;;;;;;6210680;23;20325;-84
2023/11/07 04:11:42;;;;;;;1.77;0.88;;;;;;;;;;6211046;23;20015;-84
2023/11/07 04:14:10;;;;;;;3.57;1.90;;;;;;;;;;6210192;23;20016;-84
2023/11/07 04:16:40;;;;;;;3.80;1.17;;;;;;;;;;6210550;23;20150;-83
2023/11/07 04:19:06;;;;;;;3.60;1.67;;;;;;;;;;6210624;23;20333;-84
2023/11/07 04:21:43;;;;;;;2.53;1.25;;;;;;;;;;6212747;23;20617;-84
2023/11/07 04:24:10;;;;;;;4.93;2.22;;;;;;;;;;6210917;23;20476;-84
2023/11/07 04:26:36;;;;;;;6.70;2.83;;;;;;;;;;6210689;23;20095;-84
2023/11/07 04:29:07;;;;;;;5.20;1.40;;;;;;;;;;6210835;23;20421;-84
2023/11/07 04:31:56;;;;;;;6.50;3.03;;;;;;;;;;6210327;23;20021;-84
2023/11/07 04:34:31;;;;;;;6.55;3.35;;;;;;;;;;6210955;23;20012;-83
2023/11/07 04:37:07;;;;;;;7.88;3.78;;;;;;;;;;6210631;23;20011;-83
2023/11/07 04:39:33;;;;;;;8.70;4.00;;;;;;;;;;6212531;23;20011;-83
2023/11/07 04:41:59;;;;;;;15.90;3.17;;;;;;;;;;6210341;23;20036;-84
2023/11/07 04:44:25;;;;;;;6.20;2.83;;;;;;;;;;6210138;23;20011;-83
2023/11/07 04:46:53;;;;;;;4.63;2.08;;;;;;;;;;6209597;23;20017;-84
2023/11/07 04:49:20;;;;;;;9.38;2.45;;;;;;;;;;6209925;23;20008;-83
2023/11/07 04:51:49;;;;;;;4.50;2.05;;;;;;;;;;6211078;23;20747;-83
2023/11/07 04:54:15;;;;;;;5.15;1.80;;;;;;;;;;6210317;23;20335;-84
2023/11/07 04:56:44;;;;;;;4.63;1.55;;;;;;;;;;6211017;23;20357;-84
2023/11/07 04:59:10;;;;;;;2.15;1.00;;;;;;;;;;6212144;23;20047;-84
2023/11/07 05:01:40;;;;;;;2.75;1.17;;;;;;;;;;6210570;23;20397;-84
2023/11/07 05:04:07;;;;;;;2.88;1.45;;;;;;;;;;6209990;23;20074;-84
2023/11/07 05:06:37;;;;;;;4.90;2.38;;;;;;;;;;6212146;23;20013;-84
2023/11/07 05:09:08;;;;;;;4.25;1.60;;;;;;;;;;6211363;23;20005;-84
2023/11/07 05:11:39;;;;;;;3.53;1.50;;;;;;;;;;6211016;23;20020;-84
2023/11/07 05:14:05;;;;;;;3.63;1.67;;;;;;;;;;6209829;23;20020;-84
2023/11/07 05:16:31;;;;;;;3.45;2.05;;;;;;;;;;6210098;23;20483;-83
2023/11/07 05:18:57;;;;;;;2.25;1.45;;;;;;;;;;6209667;23;20470;-84
2023/11/07 05:21:23;;;;;;;3.55;1.92;;;;;;;;;;6209742;23;20013;-84
2023/11/07 05:23:49;;;;;;;4.55;2.05;;;;;;;;;;6210318;23;20662;-84
2023/11/07 05:26:16;;;;;;;9.05;3.25;;;;;;;;;;6210218;23;20758;-83
2023/11/07 05:28:43;;;;;;;6.68;2.33;;;;;;;;;;6211850;23;20004;-83
2023/11/07 05:31:10;;;;;;;7.38;3.53;;;;;;;;;;6210489;23;20031;-84
2023/11/07 05:33:38;;;;;;;5.43;2.22;;;;;;;;;;6209399;23;20044;-83
2023/11/07 05:36:04;;;;;;;3.80;2.22;;;;;;;;;;6212201;23;20005;-84
2023/11/07 05:38:30;;;;;;;5.85;2.22;;;;;;;;;;6212051;23;20008;-83
2023/11/07 05:40:57;;;;;;;7.20;2.80;;;;;;;;;;6210556;23;20301;-84
2023/11/07 05:43:24;;;;;;;6.03;2.28;;;;;;;;;;6211987;23;20083;-83
2023/11/07 05:45:51;;;;;;;7.50;3.22;;;;;;;;;;6210350;23;20020;-83
2023/11/07 05:48:17;;;;;;;9.15;3.28;;;;;;;;;;6210099;23;20017;-83
2023/11/07 05:50:43;;;;;;;4.53;2.63;;;;;;;;;;6210621;23;20444;-83
2023/11/07 05:53:09;;;;;;;8.32;3.33;;;;;;;;;;6210192;23;20021;-83
2023/11/07 05:55:35;;;;;;;9.93;3.92;;;;;;;;;;6210056;23;20009;-83
2023/11/07 05:58:01;;;;;;;16.58;4.57;;;;;;;;;;6210375;23;20040;-83
2023/11/07 06:00:27;;;;;;;7.20;2.47;;;;;;;;;;6209922;23;20004;-83
2023/11/07 06:02:53;;;;;;;8.55;3.50;;;;;;;;;;6212194;23;20016;-83
2023/11/07 06:05:20;;;;;;;5.03;2.95;;;;;;;;;;6211621;23;20072;-84
2023/11/07 06:07:48;;;;;;;9.20;4.53;;;;;;;;;;6210458;23;20020;-83
2023/11/07 06:10:14;;;;;;;6.13;4.32;;;;;;;;;;6210788;23;20016;-83
2023/11/07 06:12:42;;;;;;;8.52;4.40;;;;;;;;;;6212351;23;20019;-83
2023/11/07 06:15:09;;;;;;;10.98;4.80;;;;;;;;;;6212126;23;20004;-83
2023/11/07 06:17:35;;;;;;;10.88;5.15;;;;;;;;;;6211753;23;20060;-82
2023/11/07 06:20:01;;;;;;;9.25;4.97;;;;;;;;;;6213057;23;20003;-82
2023/11/07 06:22:27;;;;;;;8.55;4.50;;;;;;;;;;6211200;23;20067;-84
2023/11/07 06:24:53;;;;;;;6.95;4.03;;;;;;;;;;6210729;23;20004;-85
2023/11/07 06:27:19;;;;;;;6.43;4.00;;;;;;;;;;6210920;23;20017;-82
2023/11/07 06:29:46;;;;;;;6.97;3.67;;;;;;;;;;6213381;23;20062;-85
2023/11/07 06:32:13;;;;;;;5.15;2.28;;;;;;;;;;6213849;23;20024;-86
2023/11/07 06:34:40;;;;;;;10.48;2.20;;;;;;;;;;6215591;23;20401;-87
2023/11/07 06:37:07;;;;;;;8.60;2.58;;;;;;;;;;6216317;23;20008;-86
2023/11/07 06:39:33;;;;;;;4.38;1.83;;;;;;;;;;6214955;23;20091;-83
2023/11/07 06:41:59;;;;;;;2.72;1.30;;;;;;;;;;6212961;23;20035;-84
2023/11/07 06:44:26;;;;;;;1.95;0.73;;;;;;;;;;6211131;23;20043;-84
2023/11/07 06:46:53;;;;;;;1.15;0.82;;;;;;;;;;6212488;23;20024;-84
2023/11/07 06:49:19;;;;;;;2.25;1.05;;;;;;;;;;6212811;23;20012;-84
2023/11/07 06:51:45;;;;;;;2.28;0.73;;;;;;;;;;6214507;23;20013;-84
2023/11/07 06:54:11;;;;;;;0.80;0.52;;;;;;;;;;6213702;23;20043;-85
2023/11/07 06:56:38;;;;;;;2.40;0.50;;;;;;;;;;6214150;23;20012;-84
2023/11/07 06:59:04;;;;;;;1.10;0.70;;;;;;;;;;6214469;23;20072;-84
2023/11/07 07:01:30;;;;;;;4.38;0.98;;;;;;;;;;6212290;23;20009;-84
2023/11/07 07:03:56;;;;;;;4.30;0.50;;;;;;;;;;6212696;23;20008;-84
2023/11/07 07:06:23;;;;;;;2.00;0.60;;;;;;;;;;6214176;23;20617;-84
2023/11/07 07:08:49;;;;;;;4.57;2.03;;;;;;;;;;6213425;23;20494;-84
2023/11/07 07:11:15;;;;;;;5.15;3.17;;;;;;;;;;6212447;23;20090;-84
2023/11/07 07:13:41;;;;;;;9.93;2.85;;;;;;;;;;6213165;23;20013;-84
2023/11/07 07:16:08;;;;;;;4.10;1.70;;;;;;;;;;6212959;23;20004;-84
2023/11/07 07:18:39;;;;;;;5.70;2.67;;;;;;;;;;6212487;23;20139;-84
2023/11/07 07:21:05;;;;;;;6.15;2.63;;;;;;;;;;6213851;23;20036;-84
2023/11/07 07:23:35;;;;;;;4.82;2.05;;;;;;;;;;6214858;23;20092;-84
2023/11/07 07:26:06;;;;;;;7.03;2.25;;;;;;;;;;6212713;23;20009;-84
2023/11/07 07:28:35;;;;;;;7.30;3.53;;;;;;;;;;6213046;23;20017;-84
2023/11/07 07:31:03;;;;;;;8.40;2.65;;;;;;;;;;6213183;23;20012;-84
2023/11/07 07:33:31;;;;;;;7.35;3.45;;;;;;;;;;6212409;23;20020;-84
2023/11/07 07:36:02;;;;;;;2.55;1.73;;;;;;;;;;6214052;23;20434;-84
2023/11/07 07:38:30;;;;;;;4.10;2.17;;;;;;;;;;6212397;23;20578;-84
2023/11/07 07:40:57;;;;;;;26.67;2.17;;;;;;;;;;6212594;23;20005;-84
2023/11/07 07:43:23;;;;;;;6.32;2.65;;;;;;;;;;6212173;23;20051;-84
2023/11/07 07:45:50;;;;;;;8.88;2.47;;;;;;;;;;6212667;23;20020;-84
2023/11/07 07:48:17;;;;;;;4.07;1.40;;;;;;;;;;6212606;23;20103;-84
2023/11/07 07:50:46;;;;;;;3.65;1.33;;;;;;;;;;6213116;23;20077;-84
2023/11/07 07:53:15;;;;;;;5.85;2.08;;;;;;;;;;6211072;23;20070;-84
2023/11/07 07:55:43;;;;;;;4.53;1.30;;;;;;;;;;6211459;23;20557;-84
2023/11/07 07:58:12;;;;;;;5.35;1.35;;;;;;;;;;6212157;23;20036;-84
2023/11/07 08:00:38;;;;;;;2.72;1.40;;;;;;;;;;6212296;23;20000;-84
2023/11/07 08:03:08;;;;;;;3.33;1.35;;;;;;;;;;6210761;23;20112;-84
2023/11/07 08:05:38;;;;;;;4.18;1.02;;;;;;;;;;6210720;23;20012;-84
2023/11/07 08:08:05;;;;;;;4.35;2.45;;;;;;;;;;6211650;23;20020;-84
2023/11/07 08:10:31;;;;;;;4.88;2.15;;;;;;;;;;6211011;23;20039;-84
2023/11/07 08:12:58;;;;;;;3.83;2.00;;;;;;;;;;6210586;23;20017;-84
2023/11/07 08:15:26;;;;;;;6.38;2.50;;;;;;;;;;6210251;23;20005;-84
2023/11/07 08:17:53;;;;;;;4.40;2.80;;;;;;;;;;6210649;23;20012;-84
2023/11/07 08:20:19;;;;;;;4.13;1.85;;;;;;;;;;6210058;23;20035;-84
2023/11/07 08:22:46;;;;;;;3.63;1.70;;;;;;;;;;6211993;23;20031;-84
2023/11/07 08:25:13;;;;;;;5.13;1.13;;;;;;;;;;6210369;23;20016;-83
2023/11/07 08:27:40;;;;;;;1.80;1.02;;;;;;;;;;6210408;23;20028;-83
2023/11/07 08:30:12;;;;;;;1.23;0.50;;;;;;;;;;6210340;23;20777;-84
2023/11/07 08:32:42;;;;;;;1.38;0.60;;;;;;;;;;6212664;23;20032;-84
2023/11/07 08:35:10;;;;;;;0.63;0.25;;;;;;;;;;6209985;23;20005;-84
2023/11/07 08:37:36;;;;;;;0.40;0.30;;;;;;;;;;6212492;23;20012;-84
2023/11/07 08:40:06;;;;;;;0.38;0.30;;;;;;;;;;6211469;23;20028;-84
2023/11/07 08:42:32;;;;;;;2.15;0.88;;;;;;;;;;6210263;23;20107;-84
2023/11/07 08:44:59;;;;;;;3.28;1.42;;;;;;;;;;6209401;23;20027;-84
2023/11/07 08:47:26;;;;;;;2.25;1.75;;;;;;;;;;6212619;23;20012;-84
2023/11/07 08:49:57;;;;;;;4.50;1.27;;;;;;;;;;6212310;23;20597;-84
2023/11/07 08:52:23;;;;;;;1.65;0.75;;;;;;;;;;6210872;23;20024;-83
2023/11/07 08:54:49;;;;;;;3.22;1.05;;;;;;;;;;6210215;23;20008;-84
2023/11/07 08:57:15;;;;;;;3.83;1.75;;;;;;;;;;6211838;23;20459;-84
2023/11/07 08:59:44;;;;;;;1.55;0.63;;;;;;;;;;6212426;23;20043;-84
2023/11/07 09:02:10;;;;;;;3.00;0.88;;;;;;;;;;6209928;23;20016;-84
2023/11/07 09:04:37;;;;;;;4.40;0.85;;;;;;;;;;6210149;23;20036;-85
2023/11/07 09:07:03;;;;;;;2.10;1.15;;;;;;;;;;6211871;23;20009;-84
2023/11/07 09:09:30;;;;;;;2.42;0.90;;;;;;;;;;6209869;23;20054;-85
2023/11/07 09:11:56;;;;;;;1.83;1.15;;;;;;;;;;6211977;23;20024;-84
2023/11/07 09:14:22;;;;;;;1.45;0.65;;;;;;;;;;6209629;23;20001;-84
2023/11/07 09:16:48;;;;;;;1.30;0.50;;;;;;;;;;6210309;23;20015;-84
2023/11/07 09:19:14;;;;;;;2.38;0.82;;;;;;;;;;6211538;23;20000;-83
2023/11/07 09:21:40;;;;;;;1.50;0.47;;;;;;;;;;6210153;23;20063;-84
2023/11/07 09:24:06;;;;;;;2.55;1.63;;;;;;;;;;6211705;23;20011;-84
2023/11/07 09:26:33;;;;;;;2.75;1.17;;;;;;;;;;6209392;23;20083;-84
2023/11/07 09:28:59;;;;;;;3.92;1.13;;;;;;;;;;6210016;23;20008;-84
2023/11/07 09:31:25;;;;;;;0.70;0.50;;;;;;;;;;6209792;23;20017;-84
2023/11/07 09:33:51;;;;;;;1.42;0.77;;;;;;;;;;6209667;23;20297;-84
2023/11/07 09:36:17;;;;;;;1.55;0.98;;;;;;;;;;6209924;23;20015;-84
2023/11/07 09:38:44;;;;;;;3.83;1.33;;;;;;;;;;6210022;23;20632;-84
2023/11/07 09:41:10;;;;;;;2.42;0.70;;;;;;;;;;6209466;23;20009;-84
2023/11/07 09:43:38;;;;;;;4.70;1.00;;;;;;;;;;6209590;23;20042;-84
2023/11/07 09:46:05;;;;;;;1.08;0.57;;;;;;;;;;6209131;23;20016;-84
2023/11/07 09:48:31;;;;;;;2.10;0.60;;;;;;;;;;6210025;23;20715;-84
2023/11/07 09:50:58;;;;;;;2.13;0.35;;;;;;;;;;6209640;23;20019;-84
2023/11/07 09:53:24;;;;;;;0.70;0.45;;;;;;;;;;6209667;23;20549;-84
2023/11/07 09:55:54;;;;;;;1.65;0.95;;;;;;;;;;6209214;23;20058;-84
2023/11/07 09:58:20;;;;;;;2.05;0.93;;;;;;;;;;6210097;23;20017;-84
2023/11/07 10:00:46;;;;;;;3.17;0.65;;;;;;;;;;6210821;23;20005;-84
2023/11/07 10:03:13;;;;;;;1.67;0.90;;;;;;;;;;6209392;23;20023;-84
2023/11/07 10:05:39;;;;;;;1.67;1.27;;;;;;;;;;6209236;23;20095;-84
2023/11/07 10:08:06;;;;;;;3.13;1.50;;;;;;;;;;6209393;23;20074;-84
2023/11/07 10:10:34;;;;;;;0.73;0.47;;;;;;;;;;6209246;23;20059;-84
2023/11/07 10:13:10;;;;;;;0.93;0.68;;;;;;;;;;6209403;23;20009;-84
2023/11/07 10:15:37;;;;;;;1.45;0.73;;;;;;;;;;6209486;23;20019;-83
2023/11/07 10:18:08;;;;;;;0.68;0.50;;;;;;;;;;6211293;23;20075;-84
2023/11/07 10:20:36;;;;;;;2.33;1.23;;;;;;;;;;6210542;23;20008;-84
2023/11/07 10:23:02;;;;;;;7.03;1.35;;;;;;;;;;6209168;23;20623;-84
2023/11/07 10:25:36;;;;;;;1.65;0.43;;;;;;;;;;6209231;23;20039;-84
2023/11/07 10:28:02;;;;;;;2.40;0.70;;;;;;;;;;6209309;23;20044;-84
2023/11/07 10:30:35;;;;;;;3.97;0.50;;;;;;;;;;6208940;23;20024;-84
2023/11/07 10:33:03;;;;;;;1.90;0.65;;;;;;;;;;6209667;23;20016;-84
2023/11/07 10:35:29;;;;;;;1.83;0.50;;;;;;;;;;6209309;23;20016;-84
2023/11/07 10:37:55;;;;;;;0.32;0.22;;;;;;;;;;6211739;23;20009;-84
2023/11/07 10:40:22;;;;;;;2.00;0.40;;;;;;;;;;6208396;23;20013;-84
2023/11/07 10:42:49;;;;;;;0.95;0.68;;;;;;;;;;6209419;23;20016;-84
2023/11/07 10:45:17;;;;;;;2.47;0.57;;;;;;;;;;6208413;23;20020;-84
2023/11/07 10:47:44;;;;;;;1.65;0.40;;;;;;;;;;6209400;23;20055;-84
2023/11/07 10:50:17;;;;;;;0.80;0.22;;;;;;;;;;6209053;23;20008;-84
2023/11/07 10:52:44;;;;;;;0.55;0.28;;;;;;;;;;6209472;23;20023;-84
2023/11/07 10:55:10;;;;;;;0.80;0.22;;;;;;;;;;6209398;23;20012;-84
2023/11/07 10:57:38;;;;;;;0.47;0.45;;;;;;;;;;6209357;23;20016;-84
2023/11/07 11:00:12;;;;;;;1.70;0.73;;;;;;;;;;6211134;23;20424;-85
2023/11/07 11:02:42;;;;;;;1.08;0.57;;;;;;;;;;6209035;23;20023;-84
2023/11/07 11:05:15;;;;;;;1.17;0.47;;;;;;;;;;6208729;23;20332;-84
2023/11/07 11:07:43;;;;;;;0.82;0.13;;;;;;;;;;6209351;23;20017;-84
2023/11/07 11:10:11;;;;;;;0.90;0.28;;;;;;;;;;6209326;23;20008;-84
2023/11/07 11:12:42;;;;;;;0.30;0.20;;;;;;;;;;6209886;23;20023;-84
2023/11/07 11:15:09;;;;;;;0.15;0.10;;;;;;;;;;6209081;23;20092;-84
2023/11/07 11:17:39;;;;;;;0.35;0.30;;;;;;;;;;6209777;23;20047;-84
2023/11/07 11:20:16;;;;;;;0.38;0.20;;;;;;;;;;6209327;23;20577;-84
2023/11/07 11:22:44;;;;;;;0.10;0.10;;;;;;;;;;6211848;23;20024;-84
2023/11/07 11:25:10;;;;;;;0.17;0.17;;;;;;;;;;6211520;23;20016;-84
2023/11/07 11:27:36;;;;;;;0.13;0.03;;;;;;;;;;6211463;23;20021;-84
2023/11/07 11:30:02;;;;;;;0.13;0.10;;;;;;;;;;6212352;23;20008;-84
2023/11/07 11:32:28;;;;;;;0.40;0.17;;;;;;;;;;6211336;23;20111;-84
2023/11/07 11:35:21;;;;;;;0.30;0.25;;;;;;;;;;6210125;23;20048;-85
2023/11/07 11:38:10;;;;;;;0.00;0.00;;;;;;;;;;6175048;23;20027;-85
2023/11/07 11:40:55;;;;;;;0.47;0.10;;;;;;;;;;6210758;23;20035;-85
2023/11/07 11:43:28;;;;;;;0.20;0.10;;;;;;;;;;6210975;23;20075;-83
2023/11/07 11:45:58;;;;;;;0.45;0.20;;;;;;;;;;6210313;23;20056;-84
2023/11/07 11:48:50;;;;;;;0.90;0.28;;;;;;;;;;6210973;23;20027;-84
2023/11/07 11:51:42;;;;;;;2.00;0.13;;;;;;;;;;6173813;23;20012;-84
2023/11/07 11:54:08;;;;;;;8.60;0.83;;;;;;;;;;6210990;23;20100;-84
2023/11/07 11:56:34;;;;;;;2.60;0.32;;;;;;;;;;6210558;23;20005;-84
2023/11/07 11:59:01;;;;;;;0.43;0.00;;;;;;;;;;6211236;23;20008;-84
2023/11/07 12:01:31;;;;;;;0.17;0.15;;;;;;;;;;6211069;23;20031;-84
2023/11/07 12:03:59;;;;;;;0.47;0.28;;;;;;;;;;6210962;23;20023;-84
2023/11/07 12:06:25;;;;;;;1.05;0.47;;;;;;;;;;6211362;23;20020;-84
2023/11/07 12:08:52;;;;;;;0.85;0.25;;;;;;;;;;6210808;23;20020;-84
2023/11/07 12:11:18;;;;;;;5.70;0.28;;;;;;;;;;6210084;23;20015;-84
2023/11/07 12:13:44;;;;;;;0.30;0.20;;;;;;;;;;6210865;23;20012;-84
2023/11/07 12:16:15;;;;;;;0.20;0.13;;;;;;;;;;6210554;23;20023;-84
2023/11/07 12:18:42;;;;;;;0.32;0.25;;;;;;;;;;6210301;23;20016;-84
2023/11/07 12:21:09;;;;;;;0.25;0.15;;;;;;;;;;6211315;23;20001;-84
2023/11/07 12:23:35;;;;;;;0.73;0.10;;;;;;;;;;6209990;23;20371;-84
2023/11/07 12:26:02;;;;;;;0.25;0.10;;;;;;;;;;6212911;23;20031;-84
2023/11/07 12:28:29;;;;;;;1.88;0.32;;;;;;;;;;6210167;23;20044;-84
2023/11/07 12:30:55;;;;;;;4.45;0.65;;;;;;;;;;6211000;23;20009;-84
2023/11/07 12:33:21;;;;;;;8.68;0.63;;;;;;;;;;6210399;23;20024;-84
2023/11/07 12:35:54;;;;;;;0.57;0.20;;;;;;;;;;6210745;23;20008;-84
2023/11/07 12:38:20;;;;;;;0.38;0.05;;;;;;;;;;6210221;23;20012;-84
2023/11/07 12:40:47;;;;;;;2.83;0.10;;;;;;;;;;6210934;23;20039;-84
2023/11/07 12:43:15;;;;;;;0.98;0.17;;;;;;;;;;6210239;23;20012;-84
2023/11/07 12:45:42;;;;;;;0.03;0.00;;;;;;;;;;6210632;23;20036;-84
2023/11/07 12:48:14;;;;;;;0.95;0.50;;;;;;;;;;6209924;23;20436;-84
2023/11/07 12:50:46;;;;;;;0.10;0.10;;;;;;;;;;6210850;23;20024;-84
2023/11/07 12:53:14;;;;;;;1.45;0.30;;;;;;;;;;6210429;23;20391;-84
2023/11/07 12:55:49;;;;;;;0.10;0.00;;;;;;;;;;6212107;23;20028;-84
2023/11/07 12:58:26;;;;;;;3.35;0.50;;;;;;;;;;6210068;23;20382;-83
2023/11/07 13:00:59;;;;;;;0.28;0.20;;;;;;;;;;6210831;23;20008;-84
2023/11/07 13:03:28;;;;;;;0.65;0.30;;;;;;;;;;6209774;23;20059;-84
2023/11/07 13:05:57;;;;;;;0.73;0.47;;;;;;;;;;6210591;23;20032;-84
2023/11/07 13:08:27;;;;;;;0.10;0.10;;;;;;;;;;6210228;23;20039;-84
2023/11/07 13:10:53;;;;;;;1.67;0.40;;;;;;;;;;6210246;23;20015;-84
2023/11/07 13:13:19;;;;;;;0.55;0.40;;;;;;;;;;6210109;23;20431;-84
2023/11/07 13:15:45;;;;;;;0.25;0.15;;;;;;;;;;6211711;23;20012;-84
2023/11/07 13:18:14;;;;;;;8.65;0.50;;;;;;;;;;6211792;23;20787;-84
2023/11/07 13:20:40;;;;;;;0.28;0.10;;;;;;;;;;6209680;23;20111;-84
2023/11/07 13:23:06;;;;;;;0.45;0.20;;;;;;;;;;6212044;23;20111;-84
2023/11/07 13:25:35;;;;;;;0.45;0.43;;;;;;;;;;6209680;23;20461;-84
2023/11/07 13:28:04;;;;;;;1.00;0.40;;;;;;;;;;6210096;23;20020;-84
2023/11/07 13:30:30;;;;;;;2.38;0.52;;;;;;;;;;6210214;23;20035;-84
2023/11/07 13:32:56;;;;;;;0.60;0.25;;;;;;;;;;6209515;23;20021;-84
2023/11/07 13:35:22;;;;;;;0.63;0.22;;;;;;;;;;6209616;23;20039;-84
2023/11/07 13:37:50;;;;;;;2.15;0.57;;;;;;;;;;6210404;23;20104;-84
2023/11/07 13:40:16;;;;;;;2.05;0.93;;;;;;;;;;6209775;23;20083;-84
2023/11/07 13:42:43;;;;;;;1.33;0.30;;;;;;;;;;6210308;23;20023;-83
2023/11/07 13:45:09;;;;;;;0.88;0.30;;;;;;;;;;6211148;23;20013;-84
2023/11/07 13:47:35;;;;;;;0.80;0.47;;;;;;;;;;6209561;23;20024;-84
2023/11/07 13:50:04;;;;;;;2.33;1.05;;;;;;;;;;6209524;23;20008;-84
2023/11/07 13:52:30;;;;;;;0.10;0.10;;;;;;;;;;6209559;23;20099;-84
2023/11/07 13:54:56;;;;;;;1.95;0.30;;;;;;;;;;6209150;23;20043;-84
2023/11/07 13:57:23;;;;;;;0.75;0.40;;;;;;;;;;6211628;23;20015;-84
2023/11/07 13:59:49;;;;;;;1.92;0.55;;;;;;;;;;6209535;23;20032;-84
2023/11/07 14:02:15;;;;;;;0.45;0.22;;;;;;;;;;6209428;23;20023;-84
2023/11/07 14:04:41;;;;;;;0.30;0.30;;;;;;;;;;6209093;23;20007;-84
2023/11/07 14:07:08;;;;;;;0.43;0.28;;;;;;;;;;6209260;23;20016;-84
2023/11/07 14:09:36;;;;;;;0.05;0.05;;;;;;;;;;6208931;23;20561;-84
2023/11/07 14:12:03;;;;;;;0.25;0.25;;;;;;;;;;6211516;23;20021;-84
2023/11/07 14:14:29;;;;;;;2.85;1.13;;;;;;;;;;6211368;23;20001;-84
2023/11/07 14:16:55;;;;;;;0.00;0.00;;;;;;;;;;6210095;23;20104;-84
2023/11/07 14:19:22;;;;;;;3.75;0.35;;;;;;;;;;6209307;23;20672;-84
2023/11/07 14:21:49;;;;;;;0.10;0.00;;;;;;;;;;6210040;23;20445;-84
2023/11/07 14:24:16;;;;;;;2.22;0.85;;;;;;;;;;6209849;23;20017;-84
2023/11/07 14:26:43;;;;;;;0.68;0.30;;;;;;;;;;6209558;23;20087;-84
2023/11/07 14:29:10;;;;;;;0.30;0.20;;;;;;;;;;6211033;23;20008;-84
2023/11/07 14:31:36;;;;;;;0.40;0.10;;;;;;;;;;6209819;23;20020;-85
2023/11/07 14:34:02;;;;;;;0.85;0.52;;;;;;;;;;6209044;23;20015;-84
2023/11/07 14:36:28;;;;;;;5.90;0.20;;;;;;;;;;6211184;23;20004;-85
2023/11/07 14:38:55;;;;;;;0.63;0.22;;;;;;;;;;6209579;23;20047;-84
2023/11/07 14:41:23;;;;;;;0.85;0.13;;;;;;;;;;6209068;23;20730;-84
2023/11/07 14:43:51;;;;;;;0.55;0.10;;;;;;;;;;6209510;23;20029;-84
2023/11/07 14:46:17;;;;;;;1.60;0.65;;;;;;;;;;6208919;23;20044;-84
2023/11/07 14:48:43;;;;;;;0.55;0.35;;;;;;;;;;6208213;23;20043;-84
2023/11/07 14:51:09;;;;;;;1.00;0.45;;;;;;;;;;6208919;23;20008;-84
2023/11/07 14:53:35;;;;;;;1.95;0.52;;;;;;;;;;6209075;23;20304;-84